Time;durP1;ratioP1;P1;durP2;ratioP2;P2;SDS_P1;SDS_P2;PMS_P1;PMS_P2;Temp;Humidity;BMP_temperature;BMP_pressure;BME280_temperature;BME280_humidity;BME280_pressure;Samples;Min_cycle;Max_cycle;Signal;HPM_P1;HPM_P2
2021/12/14 00:01:34;;;;;;;9.85;3.58;;;7.80;99.90;;;6.20;100.00;102334.81;2567300;30;137749;-41
2021/12/14 00:04:08;;;;;;;6.30;3.40;;;7.80;99.90;;;6.22;100.00;102327.38;2568681;30;138087;-42
2021/12/14 00:06:39;;;;;;;5.28;3.10;;;7.80;99.90;;;6.21;100.00;102328.38;2567732;30;137436;-40
2021/12/14 00:09:21;;;;;;;5.50;3.22;;;7.80;99.90;;;6.16;100.00;102322.53;2568379;30;137315;-42
2021/12/14 00:11:56;;;;;;;6.57;3.45;;;7.80;99.90;;;6.23;100.00;102330.97;2567519;30;137456;-41
2021/12/14 00:17:27;;;;;;;10.38;3.00;;;7.80;99.90;;;6.23;100.00;102336.38;2565792;30;136917;-41
2021/12/14 00:20:00;;;;;;;8.55;2.88;;;7.80;99.90;;;6.22;100.00;102348.22;2567837;30;138388;-41
2021/12/14 00:25:01;;;;;;;5.10;2.70;;;7.80;99.90;;;6.21;100.00;102332.97;2567803;30;139072;-41
2021/12/14 00:27:30;;;;;;;8.30;3.10;;;7.80;99.90;;;6.23;100.00;102337.22;2565610;30;137492;-41
2021/12/14 00:30:03;;;;;;;5.70;2.92;;;7.80;99.90;;;6.24;100.00;102338.09;2568607;30;138331;-41
2021/12/14 00:32:36;;;;;;;5.38;3.20;;;7.80;99.90;;;6.21;100.00;102335.66;2568403;30;137386;-41
2021/12/14 00:35:13;;;;;;;6.20;3.10;;;7.80;99.90;;;6.22;100.00;102329.25;2566915;30;139979;-42
2021/12/14 00:37:48;;;;;;;5.45;2.67;;;7.80;99.90;;;6.18;100.00;102318.72;2567878;30;136707;-42
2021/12/14 00:40:32;;;;;;;4.97;2.70;;;7.80;99.90;;;6.23;100.00;102311.97;2569228;30;138284;-41
2021/12/14 00:43:01;;;;;;;6.18;2.95;;;7.80;99.90;;;6.20;100.00;102318.53;2564752;30;139023;-41
2021/12/14 00:45:33;;;;;;;5.35;3.13;;;7.80;99.90;;;6.17;100.00;102311.56;2565573;30;137287;-41
2021/12/14 00:48:01;;;;;;;5.13;2.80;;;7.80;99.90;;;6.12;100.00;102310.31;2569491;30;138251;-41
2021/12/14 00:50:31;;;;;;;5.18;2.90;;;7.80;99.90;;;6.22;100.00;102334.66;2568186;30;140646;-42
2021/12/14 00:52:59;;;;;;;4.93;3.00;;;7.80;99.90;;;6.27;100.00;102325.09;2567678;30;137348;-41
2021/12/14 00:55:39;;;;;;;4.82;2.58;;;7.90;99.90;;;6.24;100.00;102327.25;2567324;30;139399;-41
2021/12/14 00:58:08;;;;;;;5.43;2.53;;;7.80;99.90;;;6.26;100.00;102322.53;2567169;30;137567;-41
2021/12/14 01:00:49;;;;;;;4.75;2.72;;;7.80;99.90;;;6.24;100.00;102324.53;2567914;30;137584;-41
2021/12/14 01:03:17;;;;;;;4.85;2.38;;;7.80;99.90;;;6.21;100.00;102322.13;2567091;30;139158;-41
2021/12/14 01:05:49;;;;;;;5.80;2.90;;;7.80;99.90;;;6.24;100.00;102327.25;2567450;30;138256;-42
2021/12/14 01:08:26;;;;;;;4.22;2.47;;;7.80;99.90;;;6.28;100.00;102304.25;2568054;30;136559;-41
2021/12/14 01:11:07;;;;;;;6.20;2.80;;;7.80;99.90;;;6.23;100.00;102309.28;2567942;30;140112;-41
2021/12/14 01:13:44;;;;;;;4.63;2.72;;;7.80;99.90;;;6.28;100.00;102318.69;2568413;30;139636;-41
2021/12/14 01:16:30;;;;;;;5.40;2.88;;;7.90;99.90;;;6.35;100.00;102323.50;2567718;30;139535;-42
2021/12/14 01:23:13;;;;;;;6.15;3.10;;;8.00;99.90;;;6.40;100.00;102299.50;2567937;30;138204;-41
2021/12/14 01:25:28;;;;;;;5.63;3.05;;;8.00;99.90;;;6.36;100.00;102307.06;2567721;30;137530;-41
2021/12/14 01:28:05;;;;;;;6.53;2.75;;;7.90;99.90;;;6.33;100.00;102310.09;2567849;30;138457;-42
2021/12/14 01:31:04;;;;;;;5.38;3.20;;;8.00;99.90;;;6.32;100.00;102320.09;2568450;30;137454;-41
2021/12/14 01:33:38;;;;;;;5.60;3.40;;;7.90;99.90;;;6.30;100.00;102321.22;2566039;30;140353;-41
2021/12/14 01:36:24;;;;;;;6.47;3.05;;;7.90;99.90;;;6.31;100.00;102323.81;2567651;30;137400;-41
2021/12/14 01:39:22;;;;;;;6.07;3.20;;;7.90;99.90;;;6.33;100.00;102331.78;2568246;30;139546;-41
2021/12/14 01:42:09;;;;;;;8.07;3.50;;;7.90;99.90;;;6.32;100.00;102336.34;2567562;30;139711;-41
2021/12/14 01:45:20;;;;;;;5.65;3.30;;;7.90;99.90;;;6.30;100.00;102335.66;2565639;30;140384;-41
2021/12/14 01:47:56;;;;;;;6.18;3.13;;;7.90;99.90;;;6.30;100.00;102346.50;2567000;30;139197;-42
2021/12/14 01:50:47;;;;;;;7.15;3.45;;;7.90;99.90;;;6.30;100.00;102346.50;2566421;30;140153;-41
2021/12/14 01:53:31;;;;;;;6.55;3.10;;;7.90;99.90;;;6.30;100.00;102340.19;2567944;30;139107;-41
2021/12/14 01:56:06;;;;;;;5.70;3.15;;;7.90;99.90;;;6.25;100.00;102326.25;2567577;30;139643;-41
2021/12/14 01:58:48;;;;;;;6.72;3.13;;;7.90;99.90;;;6.22;100.00;102324.66;2567547;30;138638;-41
2021/12/14 02:01:24;;;;;;;5.60;3.10;;;7.80;99.90;;;6.21;100.00;102336.50;2567245;30;140160;-41
2021/12/14 02:04:00;;;;;;;4.70;2.53;;;7.80;99.90;;;6.23;100.00;102336.38;2567667;30;138341;-41
2021/12/14 02:06:33;;;;;;;6.50;3.38;;;7.80;99.90;;;6.24;100.00;102332.66;2566368;30;139644;-41
2021/12/14 02:09:14;;;;;;;6.78;3.50;;;7.80;99.90;;;6.19;100.00;102325.84;2567969;30;137460;-41
2021/12/14 02:11:54;;;;;;;6.47;3.53;;;7.80;99.90;;;6.21;100.00;102316.69;2567919;30;139060;-41
2021/12/14 02:14:23;;;;;;;7.57;3.30;;;7.80;99.90;;;6.10;100.00;102307.75;2565841;30;138559;-41
2021/12/14 02:17:00;;;;;;;5.90;2.90;;;7.70;99.90;;;6.06;100.00;102321.72;2567077;30;140164;-41
2021/12/14 02:19:31;;;;;;;5.93;3.17;;;7.70;99.90;;;6.04;100.00;102327.28;2566891;30;138865;-41
2021/12/14 02:22:00;;;;;;;7.85;3.40;;;7.70;99.90;;;6.10;100.00;102317.72;2568001;30;138401;-41
2021/12/14 02:24:30;;;;;;;7.40;4.05;;;7.70;99.90;;;6.10;100.00;102299.63;2567282;30;136853;-41
2021/12/14 02:27:00;;;;;;;7.55;3.47;;;7.70;99.90;;;6.02;100.00;102294.94;2568242;30;138986;-42
2021/12/14 02:29:43;;;;;;;7.72;3.28;;;7.70;99.90;;;6.06;100.00;102297.34;2568031;30;138564;-41
2021/12/14 02:32:25;;;;;;;7.53;3.70;;;7.70;99.90;;;6.05;100.00;102280.22;2567486;30;138157;-41
2021/12/14 02:35:05;;;;;;;7.00;3.30;;;7.70;99.90;;;6.02;100.00;102256.13;2567164;30;139807;-41
2021/12/14 02:37:55;;;;;;;7.53;3.35;;;7.60;99.90;;;6.00;100.00;102267.09;2568162;30;137137;-41
2021/12/14 02:43:28;;;;;;;7.32;4.10;;;7.60;99.90;;;6.06;100.00;102272.97;2567354;30;139684;-42
2021/12/14 02:46:26;;;;;;;6.85;4.20;;;7.70;99.90;;;6.08;100.00;102274.50;2567591;30;137026;-41
2021/12/14 02:48:58;;;;;;;;;;;7.70;99.90;;;6.02;100.00;102286.81;2566290;30;139385;-41
2021/12/14 02:51:39;;;;;;;8.68;3.92;;;7.60;99.90;;;6.03;100.00;102276.81;2568669;30;137021;-41
2021/12/14 02:54:16;;;;;;;10.82;4.65;;;7.60;99.90;;;6.00;100.00;102258.09;2568112;30;139823;-41
2021/12/14 02:56:50;;;;;;;7.93;4.38;;;7.60;99.90;;;5.96;100.00;102262.09;2568158;30;139686;-41
2021/12/14 02:59:27;;;;;;;9.82;4.60;;;7.60;99.90;;;6.00;100.00;102264.38;2565967;30;139226;-41
2021/12/14 03:02:03;;;;;;;10.82;4.80;;;7.60;99.90;;;5.96;100.00;102262.09;2566293;30;138039;-41
2021/12/14 03:04:37;;;;;;;10.60;5.20;;;7.60;99.90;;;5.93;100.00;102265.13;2564328;30;140435;-41
2021/12/14 03:07:06;;;;;;;11.73;4.78;;;7.50;99.90;;;5.87;100.00;102259.28;2567109;30;138396;-41
2021/12/14 03:12:34;;;;;;;8.90;4.93;;;7.50;99.90;;;5.95;100.00;102249.56;2566965;30;137879;-41
2021/12/14 03:15:15;;;;;;;8.95;4.65;;;7.50;99.90;;;5.97;100.00;102239.44;2566893;30;138318;-42
2021/12/14 03:17:50;;;;;;;11.73;5.22;;;7.60;99.90;;;5.96;100.00;102230.44;2569450;30;137579;-41
2021/12/14 03:20:35;;;;;;;10.75;5.25;;;7.60;99.90;;;5.95;100.00;102238.72;2566774;30;140095;-42
2021/12/14 03:23:44;;;;;;;11.40;5.60;;;7.50;99.90;;;6.00;100.00;102240.00;2566971;30;139824;-41
2021/12/14 03:26:16;;;;;;;10.10;4.88;;;7.60;99.90;;;6.02;100.00;102262.41;2567023;30;138922;-41
2021/12/14 03:28:50;;;;;;;10.32;5.32;;;7.60;99.90;;;6.10;100.00;102241.84;2567715;30;137422;-41
2021/12/14 03:31:25;;;;;;;13.02;5.95;;;7.60;99.90;;;6.08;100.00;102243.84;2568649;30;139850;-41
2021/12/14 03:34:02;;;;;;;10.90;5.05;;;7.70;99.90;;;6.12;100.00;102235.28;2568696;30;137623;-41
2021/12/14 03:39:44;;;;;;;10.32;5.50;;;7.70;99.90;;;6.08;100.00;102246.56;2570013;30;137320;-38
2021/12/14 03:42:37;;;;;;;12.63;6.47;;;7.70;99.90;;;6.03;100.00;102234.31;2569952;30;137930;-38
2021/12/14 03:45:19;;;;;;;13.48;6.53;;;7.70;99.90;;;6.10;100.00;102250.84;2567595;30;139580;-38
2021/12/14 03:47:58;;;;;;;12.20;6.10;;;7.70;99.90;;;6.06;100.00;102257.53;2570498;30;139890;-38
2021/12/14 03:50:35;;;;;;;16.60;7.72;;;7.70;99.90;;;6.02;100.00;102254.28;2570457;30;140644;-38
2021/12/14 03:53:03;;;;;;;12.45;6.55;;;7.60;99.90;;;6.02;100.00;102261.53;2567876;30;137191;-38
2021/12/14 03:55:38;;;;;;;15.80;7.25;;;7.60;99.90;;;6.02;100.00;102264.25;2569122;30;140710;-38
2021/12/14 03:58:30;;;;;;;15.50;6.70;;;7.60;99.90;;;6.06;100.00;102268.38;2568494;30;139434;-47
2021/12/14 04:01:07;;;;;;;15.95;7.63;;;7.60;99.90;;;6.06;100.00;102262.94;2569579;30;141025;-38
2021/12/14 04:03:41;;;;;;;15.73;7.57;;;7.70;99.90;;;6.03;100.00;102260.53;2570213;30;137114;-38
2021/12/14 04:06:14;;;;;;;13.48;7.88;;;7.60;99.90;;;5.95;100.00;102254.97;2569264;30;139477;-38
2021/12/14 04:08:43;;;;;;;13.85;6.78;;;7.60;99.90;;;5.97;100.00;102259.25;2568593;30;140068;-38
2021/12/14 04:11:13;;;;;;;14.65;6.85;;;7.60;99.90;;;6.00;100.00;102260.81;2570235;30;137820;-38
2021/12/14 04:13:46;;;;;;;17.25;7.72;;;7.60;99.90;;;6.02;100.00;102264.25;2567972;30;138525;-38
2021/12/14 04:16:24;;;;;;;14.68;7.38;;;7.60;99.90;;;6.00;100.00;102274.34;2568473;30;140002;-38
2021/12/14 04:18:56;;;;;;;15.73;7.93;;;7.60;99.90;;;5.99;100.00;102265.38;2568475;30;138926;-38
2021/12/14 04:21:25;;;;;;;15.20;7.65;;;7.60;99.90;;;6.02;100.00;102266.97;2569986;30;138427;-38
2021/12/14 04:23:54;;;;;;;16.90;8.05;;;7.60;99.90;;;6.00;100.00;102267.09;2567765;30;137457;-38
2021/12/14 04:26:23;;;;;;;15.35;7.13;;;7.60;99.90;;;5.95;100.00;102263.94;2569286;30;139636;-38
2021/12/14 04:28:55;;;;;;;;;;;7.60;99.90;;;5.95;100.00;102252.28;2569273;30;139654;-38
2021/12/14 04:31:24;;;;;;;17.13;7.30;;;7.50;99.90;;;5.96;100.00;102262.09;2568030;30;140508;-38
2021/12/14 04:33:55;;;;;;;15.98;7.50;;;7.60;99.90;;;5.91;100.00;102267.94;2567762;30;137648;-38
2021/12/14 04:36:27;;;;;;;16.10;7.15;;;7.60;99.90;;;5.89;100.00;102260.00;2571880;30;139213;-38
2021/12/14 04:39:02;;;;;;;16.88;7.30;;;7.50;99.90;;;5.88;100.00;102274.53;2566677;30;138958;-38
2021/12/14 04:53:10;;;;;;;15.38;7.88;;;7.50;99.90;;;5.77;100.00;102280.09;2568769;30;139956;-38
2021/12/14 04:55:42;;;;;;;16.38;8.50;;;7.40;99.90;;;5.75;100.00;102272.13;2566219;30;137543;-38
2021/12/14 04:58:11;;;;;;;19.40;8.30;;;7.40;99.90;;;5.76;100.00;102279.25;2568151;30;140882;-38
2021/12/14 05:00:47;;;;;;;16.23;7.95;;;7.40;99.90;;;5.79;100.00;102279.97;2569541;30;137564;-38
2021/12/14 05:03:35;;;;;;;17.52;7.95;;;7.40;99.90;;;5.80;100.00;102279.81;2567054;30;140524;-38
2021/12/14 05:06:26;;;;;;;20.45;8.88;;;7.40;99.90;;;5.74;100.00;102278.56;2569232;30;139880;-38
2021/12/14 05:11:58;;;;;;;22.77;8.95;;;7.40;99.90;;;5.78;100.00;102279.09;2569545;30;138436;-38
2021/12/14 05:14:30;;;;;;;18.15;8.43;;;7.40;99.90;;;5.78;100.00;102284.50;2567758;30;139560;-38
2021/12/14 05:17:06;;;;;;;17.38;8.70;;;7.40;99.90;;;5.77;100.00;102282.81;2569433;30;138641;-38
2021/12/14 05:19:38;;;;;;;19.17;8.77;;;7.40;99.90;;;5.76;100.00;102275.69;2570364;30;139194;-38
2021/12/14 05:22:38;;;;;;;17.88;7.65;;;7.40;99.90;;;5.81;100.00;102276.09;2567730;30;139235;-38
2021/12/14 05:25:28;;;;;;;19.40;9.05;;;7.40;99.90;;;5.78;100.00;102278.25;2570311;30;139696;-38
2021/12/14 05:28:09;;;;;;;15.88;8.07;;;7.40;99.90;;;5.77;100.00;102277.38;2569030;30;138388;-38
2021/12/14 05:30:45;;;;;;;18.73;8.82;;;7.40;99.90;;;5.72;100.00;102287.81;2568528;30;138346;-38
2021/12/14 05:33:28;;;;;;;17.63;8.60;;;7.30;99.90;;;5.68;100.00;102276.41;2567842;30;139589;-38
2021/12/14 05:36:03;;;;;;;;;;;7.30;99.90;;;5.68;100.00;102273.69;2566931;30;138441;-38
2021/12/14 05:38:54;;;;;;;18.23;8.27;;;7.30;99.90;;;5.67;100.00;102271.16;2569933;30;136944;-38
2021/12/14 05:44:25;;;;;;;17.67;8.50;;;7.30;99.90;;;5.60;100.00;102260.91;2568418;30;137694;-38
2021/12/14 05:47:05;;;;;;;21.33;9.40;;;7.30;99.90;;;5.63;100.00;102253.47;2569813;30;139919;-38
2021/12/14 05:49:51;;;;;;;16.17;8.52;;;7.20;99.90;;;5.64;100.00;102252.47;2569887;30;136781;-38
2021/12/14 05:52:25;;;;;;;18.65;8.10;;;7.30;99.90;;;5.63;100.00;102253.47;2570126;30;139636;-38
2021/12/14 05:54:56;;;;;;;16.25;7.93;;;7.30;99.90;;;5.68;100.00;102251.19;2567858;30;138793;-38
2021/12/14 05:57:27;;;;;;;15.30;7.65;;;7.30;99.90;;;5.65;100.00;102257.75;2568430;30;139744;-38
2021/12/14 05:59:56;;;;;;;19.15;8.07;;;7.30;99.90;;;5.65;100.00;102259.59;2568879;30;139200;-38
2021/12/14 06:02:25;;;;;;;16.27;7.80;;;7.30;99.90;;;5.65;100.00;102246.06;2567226;30;139420;-38
2021/12/14 06:04:55;;;;;;;17.90;8.45;;;7.30;99.90;;;5.65;100.00;102249.63;2567407;30;139502;-38
2021/12/14 06:07:25;;;;;;;19.67;8.57;;;7.30;99.90;;;5.65;100.00;102246.06;2567348;30;139859;-38
2021/12/14 06:09:55;;;;;;;16.65;8.27;;;7.30;99.90;;;5.63;100.00;102258.91;2567635;30;137487;-38
2021/12/14 06:12:36;;;;;;;18.98;8.68;;;7.30;99.90;;;5.66;100.00;102259.44;2570338;30;139212;-38
2021/12/14 06:15:16;;;;;;;18.25;8.88;;;7.30;99.90;;;5.63;100.00;102257.03;2568118;30;138127;-38
2021/12/14 06:17:46;;;;;;;19.15;9.18;;;7.30;99.90;;;5.76;100.00;102264.84;2568169;30;139073;-38
2021/12/14 06:20:35;;;;;;;17.23;9.10;;;7.30;99.90;;;5.73;100.00;102273.28;2570254;30;138126;-38
2021/12/14 06:23:08;;;;;;;17.73;8.43;;;7.30;99.90;;;5.71;100.00;102276.13;2566534;30;138373;-38
2021/12/14 06:25:58;;;;;;;16.30;8.65;;;7.30;99.90;;;5.73;100.00;102278.69;2567860;30;136918;-38
2021/12/14 06:28:29;;;;;;;18.52;9.15;;;7.30;99.90;;;5.76;100.00;102275.69;2565500;30;138507;-38
2021/12/14 06:31:00;;;;;;;17.65;8.82;;;7.40;99.90;;;5.77;100.00;102280.09;2569571;30;139925;-38
2021/12/14 06:33:32;;;;;;;16.95;8.10;;;7.40;99.90;;;5.73;100.00;102273.28;2568564;30;139708;-38
2021/12/14 06:36:02;;;;;;;17.08;8.43;;;7.40;99.90;;;5.73;100.00;102273.28;2569671;30;138302;-38
2021/12/14 06:38:35;;;;;;;16.70;7.95;;;7.40;99.90;;;5.74;100.00;102270.44;2567515;30;139871;-38
2021/12/14 06:41:23;;;;;;;15.43;8.05;;;7.30;99.90;;;5.73;100.00;102270.56;2567392;30;137751;-38
2021/12/14 06:43:59;;;;;;;17.60;8.35;;;7.40;99.90;;;5.75;100.00;102273.97;2568928;30;140968;-38
2021/12/14 06:46:35;;;;;;;15.88;8.50;;;7.30;99.90;;;5.79;100.00;102271.84;2569300;30;137097;-38
2021/12/14 06:49:13;;;;;;;16.50;7.75;;;7.40;99.90;;;5.78;100.00;102275.56;2567965;30;137885;-38
2021/12/14 06:51:50;;;;;;;19.17;8.52;;;7.40;99.90;;;5.72;100.00;102276.97;2569540;30;139434;-38
2021/12/14 06:54:47;;;;;;;16.45;7.70;;;7.30;99.90;;;5.67;100.00;102290.09;2565789;30;137679;-38
2021/12/14 06:57:38;;;;;;;14.43;7.43;;;7.30;99.90;;;5.65;100.00;102305.66;2570455;30;137094;-38
2021/12/14 07:00:11;;;;;;;16.48;8.00;;;7.30;99.90;;;5.65;100.00;102302.94;2568466;30;139401;-38
2021/12/14 07:02:51;;;;;;;18.08;9.07;;;7.30;99.90;;;5.65;100.00;102308.34;2570301;30;137591;-38
2021/12/14 07:05:49;;;;;;;13.88;7.47;;;7.20;99.90;;;5.66;100.00;102310.91;2569720;30;137621;-38
2021/12/14 07:08:26;;;;;;;15.57;8.07;;;7.30;99.90;;;5.66;100.00;102315.47;2569741;30;139396;-38
2021/12/14 07:10:55;;;;;;;14.85;7.88;;;7.30;99.90;;;5.69;100.00;102318.72;2567137;30;137357;-38
2021/12/14 07:13:38;;;;;;;19.42;8.82;;;7.30;99.90;;;5.71;100.00;102324.00;2570088;30;138437;-38
2021/12/14 07:16:30;;;;;;;17.60;8.57;;;7.30;99.90;;;5.74;100.00;102323.72;2572029;30;138390;-38
2021/12/14 07:19:06;;;;;;;15.20;7.90;;;7.30;99.90;;;5.68;100.00;102311.59;2570500;30;137763;-38
2021/12/14 07:21:49;;;;;;;15.98;8.00;;;7.30;99.90;;;5.64;100.00;102312.91;2569999;30;138519;-38
2021/12/14 07:24:22;;;;;;;16.23;8.13;;;7.30;99.90;;;5.66;100.00;102318.19;2566507;30;137457;-37
2021/12/14 07:27:11;;;;;;;16.38;7.93;;;7.30;99.90;;;5.74;100.00;102321.03;2569915;30;137195;-38
2021/12/14 07:29:39;;;;;;;;;;;7.30;99.90;;;5.71;100.00;102321.31;2569609;30;137464;-38
2021/12/14 07:32:07;;;;;;;15.27;7.25;;;7.30;99.90;;;5.73;100.00;102331.00;2567869;30;137486;-38
2021/12/14 07:34:35;;;;;;;;;;;7.30;99.90;;;5.69;100.00;102334.97;2569121;30;137859;-38
2021/12/14 07:37:04;;;;;;;13.55;6.85;;;7.30;99.90;;;5.69;100.00;102340.41;2569237;30;137988;-38
2021/12/14 07:39:31;;;;;;;13.50;6.80;;;7.30;99.90;;;5.67;100.00;102339.69;2569762;30;137646;-38
2021/12/14 07:42:00;;;;;;;15.70;7.90;;;7.30;99.90;;;5.66;100.00;102343.38;2569987;30;138496;-38
2021/12/14 07:44:47;;;;;;;15.43;7.13;;;7.30;99.90;;;5.69;100.00;102353.94;2567925;30;136663;-38
2021/12/14 07:47:19;;;;;;;14.77;7.40;;;7.30;99.90;;;5.73;100.00;102349.09;2569642;30;138383;-38
2021/12/14 07:49:54;;;;;;;14.07;7.18;;;7.30;99.90;;;5.69;100.00;102380.19;2569255;30;137387;-38
2021/12/14 07:52:36;;;;;;;13.38;6.90;;;7.30;99.90;;;5.65;100.00;102381.47;2569532;30;140504;-38
2021/12/14 07:55:20;;;;;;;14.45;7.55;;;7.30;99.90;;;5.68;100.00;102370.34;2569524;30;137439;-38
2021/12/14 07:57:48;;;;;;;13.52;7.13;;;7.30;99.90;;;5.70;100.00;102377.34;2571747;30;138149;-38
2021/12/14 08:00:23;;;;;;;15.93;7.43;;;7.30;99.90;;;5.71;100.00;102383.59;2568042;30;137570;-38
2021/12/14 08:02:58;;;;;;;12.48;6.70;;;7.30;99.90;;;5.69;100.00;102380.19;2568823;30;138358;-38
2021/12/14 08:05:33;;;;;;;15.90;8.27;;;7.30;99.90;;;5.81;100.00;102384.44;2568821;30;138271;-38
2021/12/14 08:08:13;;;;;;;15.30;7.40;;;7.40;99.90;;;5.78;100.00;102382.03;2569250;30;138277;-38
2021/12/14 08:14:05;;;;;;;14.27;7.57;;;7.40;99.90;;;5.78;100.00;102378.47;2568581;30;137537;-38
2021/12/14 08:16:52;;;;;;;15.13;7.45;;;7.40;99.90;;;5.76;100.00;102376.75;2568105;30;137518;-38
2021/12/14 08:19:35;;;;;;;14.88;7.95;;;7.40;99.90;;;5.82;100.00;102383.44;2566473;30;138237;-38
2021/12/14 08:22:35;;;;;;;16.92;7.70;;;7.40;99.90;;;5.81;100.00;102392.56;2568773;30;137475;-38
2021/12/14 08:25:07;;;;;;;12.93;6.63;;;7.40;99.90;;;5.76;100.00;102394.84;2568645;30;137663;-38
2021/12/14 08:27:34;;;;;;;13.68;7.07;;;7.40;99.90;;;5.77;100.00;102401.97;2570140;30;136749;-38
2021/12/14 08:30:15;;;;;;;15.55;7.10;;;7.40;99.90;;;5.77;100.00;102401.97;2569558;30;138376;-38
2021/12/14 08:32:43;;;;;;;15.15;7.40;;;7.40;99.90;;;5.83;100.00;102412.25;2568277;30;136983;-38
2021/12/14 08:35:14;;;;;;;15.55;7.13;;;7.40;99.90;;;5.87;100.00;102408.28;2568472;30;137866;-38
2021/12/14 08:37:50;;;;;;;15.00;7.85;;;7.40;99.90;;;5.87;100.00;102408.28;2567089;30;137579;-38
2021/12/14 08:40:23;;;;;;;15.93;7.65;;;7.50;99.90;;;5.89;100.00;102408.13;2568530;30;138492;-38
2021/12/14 08:43:04;;;;;;;17.55;8.15;;;7.50;99.90;;;5.89;100.00;102409.00;2568383;30;137429;-38
2021/12/14 08:45:53;;;;;;;16.90;7.35;;;7.50;99.90;;;5.90;100.00;102405.28;2567196;30;138313;-38
2021/12/14 08:48:51;;;;;;;14.63;7.80;;;7.50;99.90;;;5.87;100.00;102402.00;2566364;30;137712;-38
2021/12/14 08:51:33;;;;;;;14.00;7.53;;;7.50;99.90;;;5.88;100.00;102396.44;2569372;30;138318;-38
2021/12/14 08:54:12;;;;;;;17.13;8.13;;;7.50;99.90;;;5.85;100.00;102393.16;2570060;30;136968;-38
2021/12/14 08:56:49;;;;;;;16.70;8.13;;;7.50;99.90;;;5.84;100.00;102397.72;2568081;30;137286;-38
2021/12/14 08:59:17;;;;;;;14.40;7.35;;;7.40;99.90;;;5.83;100.00;102390.56;2569280;30;138108;-38
2021/12/14 09:01:48;;;;;;;13.73;7.35;;;7.50;99.90;;;5.88;100.00;102401.84;2570241;30;137437;-38
2021/12/14 09:04:30;;;;;;;16.73;8.20;;;7.50;99.90;;;5.89;100.00;102391.84;2569897;30;138142;-38
2021/12/14 09:07:15;;;;;;;14.98;8.18;;;7.50;99.90;;;5.88;100.00;102392.84;2569889;30;138414;-38
2021/12/14 09:09:44;;;;;;;15.80;8.50;;;7.50;99.90;;;5.92;100.00;102379.91;2569796;30;137684;-38
2021/12/14 09:12:31;;;;;;;17.55;8.93;;;7.50;99.90;;;5.96;100.00;102394.84;2568790;30;138044;-38
2021/12/14 09:15:12;;;;;;;17.50;8.95;;;7.50;99.90;;;6.02;100.00;102395.19;2567480;30;137390;-38
2021/12/14 09:17:40;;;;;;;19.23;9.20;;;7.60;99.90;;;6.04;100.00;102387.75;2566412;30;138006;-38
2021/12/14 09:20:16;;;;;;;19.52;10.20;;;7.60;99.90;;;6.02;100.00;102397.88;2569792;30;137264;-38
2021/12/14 09:22:51;;;;;;;17.85;9.82;;;7.60;99.90;;;6.09;100.00;102391.88;2568146;30;137375;-39
2021/12/14 09:25:26;;;;;;;18.38;9.35;;;7.60;99.90;;;6.13;100.00;102396.88;2570555;30;137413;-37
2021/12/14 09:27:56;;;;;;;23.50;10.85;;;7.70;99.90;;;6.14;100.00;102397.72;2568799;30;137072;-38
2021/12/14 09:30:29;;;;;;;19.20;9.93;;;7.70;99.90;;;6.17;100.00;102400.13;2571322;30;136669;-38
2021/12/14 09:32:57;;;;;;;20.38;9.68;;;7.70;99.90;;;6.21;100.00;102408.84;2569638;30;138425;-38
2021/12/14 09:35:29;;;;;;;18.38;10.07;;;7.70;99.90;;;6.27;100.00;102411.84;2570395;30;137686;-38
2021/12/14 09:37:59;;;;;;;19.40;9.57;;;7.80;99.90;;;6.24;100.00;102403.13;2578032;30;137490;-41
2021/12/14 09:40:35;;;;;;;18.77;10.02;;;7.80;99.90;;;6.30;100.00;102407.97;2567913;30;138484;-41
2021/12/14 09:43:03;;;;;;;20.17;10.25;;;7.80;99.90;;;6.26;100.00;102412.84;2567733;30;138314;-41
2021/12/14 09:45:43;;;;;;;19.42;9.73;;;7.80;99.90;;;6.39;100.00;102406.25;2567139;30;136921;-41
2021/12/14 09:48:20;;;;;;;19.13;9.65;;;7.90;99.90;;;6.41;100.00;102404.25;2566788;30;137820;-41
2021/12/14 09:50:49;;;;;;;17.90;10.25;;;7.90;99.90;;;6.48;100.00;102406.22;2567752;30;137617;-40
2021/12/14 09:53:23;;;;;;;19.50;11.15;;;8.00;99.90;;;6.52;100.00;102408.66;2568546;30;138192;-41
2021/12/14 09:55:55;;;;;;;20.73;10.57;;;8.00;99.90;;;6.55;100.00;102405.63;2567675;30;137722;-41
2021/12/14 09:58:30;;;;;;;21.45;10.63;;;8.00;99.90;;;6.59;100.00;102404.34;2567753;30;138304;-40
2021/12/14 10:01:22;;;;;;;22.42;10.50;;;8.10;99.90;;;6.60;100.00;102408.75;2567658;30;137799;-41
2021/12/14 10:03:59;;;;;;;18.27;9.70;;;8.10;99.90;;;6.67;100.00;102404.47;2568205;30;139327;-41
2021/12/14 10:06:32;;;;;;;21.15;10.20;;;8.20;99.90;;;6.69;100.00;102399.75;2567701;30;138295;-41
2021/12/14 10:09:12;;;;;;;17.80;10.18;;;8.20;99.90;;;6.70;100.00;102411.44;2568364;30;138448;-41
2021/12/14 10:14:19;;;;;;;20.40;11.00;;;8.20;99.90;;;6.69;100.00;102417.88;2567254;30;137819;-41
2021/12/14 10:16:47;;;;;;;20.98;10.18;;;8.20;99.90;;;6.68;100.00;102422.47;2565260;30;137734;-41
2021/12/14 10:19:22;;;;;;;18.58;10.00;;;8.20;99.90;;;6.75;100.00;102420.84;2565705;30;138870;-41
2021/12/14 10:21:59;;;;;;;19.23;9.85;;;8.20;99.90;;;6.77;100.00;102415.28;2567728;30;136894;-41
2021/12/14 10:24:28;;;;;;;18.25;9.63;;;8.30;99.90;;;6.75;100.00;102415.44;2564788;30;138412;-41
2021/12/14 10:27:07;;;;;;;19.67;9.20;;;8.30;99.90;;;6.77;100.00;102418.00;2568293;30;138178;-41
2021/12/14 10:29:35;;;;;;;16.95;9.00;;;8.30;99.90;;;6.76;100.00;102409.00;2567280;30;137318;-41
2021/12/14 10:32:13;;;;;;;19.08;9.52;;;8.30;99.90;;;6.76;100.00;102408.13;2567853;30;138432;-41
2021/12/14 10:34:48;;;;;;;18.52;9.18;;;8.30;99.90;;;6.76;100.00;102416.25;2566747;30;137491;-41
2021/12/14 10:37:25;;;;;;;17.27;8.95;;;8.30;99.90;;;6.73;100.00;102403.88;2568175;30;136896;-41
2021/12/14 10:43:05;;;;;;;18.77;10.02;;;8.30;99.90;;;6.84;100.00;102427.25;2567578;30;136976;-42
2021/12/14 10:45:34;;;;;;;18.92;9.15;;;8.30;99.90;;;6.84;100.00;102421.81;2566927;30;139236;-41
2021/12/14 10:48:05;;;;;;;17.33;8.80;;;8.40;99.90;;;6.88;100.00;102420.53;2565325;30;137320;-41
2021/12/14 10:50:36;;;;;;;18.95;9.10;;;8.40;99.90;;;6.92;100.00;102418.38;2568605;30;137136;-41
2021/12/14 10:53:08;;;;;;;19.75;9.38;;;8.40;99.90;;;7.00;100.00;102413.03;2566656;30;137875;-41
2021/12/14 10:55:49;;;;;;;17.50;9.43;;;8.50;99.90;;;7.02;100.00;102413.75;2568066;30;138252;-41
2021/12/14 10:58:20;;;;;;;15.35;8.68;;;8.50;99.90;;;7.03;100.00;102412.75;2567751;30;137333;-41
2021/12/14 11:00:50;;;;;;;18.27;9.30;;;8.50;99.90;;;7.06;100.00;102414.31;2568187;30;137945;-41
2021/12/14 11:03:31;;;;;;;15.20;8.43;;;8.50;99.90;;;7.05;100.00;102410.72;2566909;30;137480;-41
2021/12/14 11:06:09;;;;;;;15.70;8.50;;;8.50;99.90;;;7.07;100.00;102409.72;2567378;30;138548;-41
2021/12/14 11:11:53;;;;;;;21.30;9.98;;;8.60;99.90;;;7.11;100.00;102395.72;2565994;30;139051;-41
2021/12/14 11:14:30;;;;;;;19.67;9.25;;;8.60;99.90;;;7.20;100.00;102386.66;2567737;30;137694;-41
2021/12/14 11:19:56;;;;;;;18.92;9.32;;;8.70;99.90;;;7.29;100.00;102387.59;2564585;30;137958;-41
2021/12/14 11:22:51;;;;;;;17.20;8.93;;;8.80;99.90;;;7.33;100.00;102382.72;2566981;30;138371;-41
2021/12/14 11:25:57;;;;;;;20.42;9.55;;;8.80;99.90;;;7.37;100.00;102392.28;2566112;30;138702;-41
2021/12/14 11:28:37;;;;;;;17.50;9.32;;;8.80;99.90;;;7.40;100.00;102381.09;2567074;30;139504;-41
2021/12/14 11:31:42;;;;;;;18.75;9.70;;;8.90;99.90;;;7.47;100.00;102378.63;2566768;30;138890;-42
2021/12/14 11:34:30;;;;;;;18.30;9.15;;;8.90;99.90;;;7.53;100.00;102388.00;2567433;30;138851;-41
2021/12/14 11:37:08;;;;;;;16.88;9.00;;;9.00;99.90;;;7.53;100.00;102388.00;2567360;30;138350;-41
2021/12/14 11:39:44;;;;;;;16.27;8.65;;;9.00;99.90;;;7.58;100.00;102380.28;2568003;30;137887;-41